Time;durP1;ratioP1;P1;durP2;ratioP2;P2;SDS_P1;SDS_P2;PMS_P1;PMS_P2;Temp;Humidity;BMP_temperature;BMP_pressure;BME280_temperature;BME280_humidity;BME280_pressure;Samples;Min_cycle;Max_cycle;Signal;HPM_P1;HPM_P2
2023/09/24 00:02:10;;;;;;;57.17;33.47;;;27.50;99.90;;;;;;5054643;28;20032;-69
2023/09/24 00:04:37;;;;;;;58.60;33.22;;;27.40;99.90;;;;;;5054360;28;20037;-69
2023/09/24 00:07:05;;;;;;;46.30;29.90;;;27.60;99.90;;;;;;5054356;28;20029;-68
2023/09/24 00:09:32;;;;;;;52.55;30.90;;;27.50;99.90;;;;;;5054286;28;20507;-67
2023/09/24 00:11:59;;;;;;;55.30;33.58;;;27.50;99.90;;;;;;5054759;28;20100;-68
2023/09/24 00:14:28;;;;;;;51.03;31.60;;;27.50;99.90;;;;;;5054347;28;20035;-68
2023/09/24 00:16:55;;;;;;;45.50;29.80;;;27.50;99.90;;;;;;5054177;28;20082;-67
2023/09/24 00:19:27;;;;;;;49.90;31.30;;;27.60;99.90;;;;;;5054205;28;20024;-68
2023/09/24 00:21:54;;;;;;;45.13;30.52;;;27.60;99.90;;;;;;5071221;28;20473;-68
2023/09/24 00:24:21;;;;;;;45.70;30.35;;;27.60;99.90;;;;;;5068830;28;20043;-67
2023/09/24 00:26:47;;;;;;;52.10;31.58;;;27.80;99.90;;;;;;5059073;28;20021;-66
2023/09/24 00:29:14;;;;;;;46.28;31.65;;;27.80;99.90;;;;;;5073925;28;20031;-68
2023/09/24 00:31:41;;;;;;;49.47;32.20;;;27.80;99.90;;;;;;5073832;28;20021;-68
2023/09/24 00:34:08;;;;;;;59.55;35.72;;;28.00;99.90;;;;;;5074546;28;20029;-69
2023/09/24 00:36:35;;;;;;;59.63;34.95;;;28.00;99.90;;;;;;5074525;28;20029;-69
2023/09/24 00:39:02;;;;;;;49.67;32.78;;;28.10;99.90;;;;;;5074312;28;20477;-68
2023/09/24 00:41:29;;;;;;;46.85;29.88;;;28.10;99.90;;;;;;5074159;28;20385;-69
2023/09/24 00:43:57;;;;;;;49.42;30.70;;;28.20;99.90;;;;;;5073863;28;20461;-69
2023/09/24 00:46:25;;;;;;;50.45;31.08;;;28.30;99.90;;;;;;5073568;28;20025;-68
2023/09/24 00:48:53;;;;;;;51.15;33.00;;;28.40;99.90;;;;;;5083132;28;20497;-67
2023/09/24 00:51:23;;;;;;;68.30;31.67;;;28.40;99.90;;;;;;5083223;28;20028;-69
2023/09/24 00:53:52;;;;;;;55.78;29.83;;;28.50;99.90;;;;;;5079861;28;20103;-67
2023/09/24 00:56:19;;;;;;;47.47;28.75;;;28.50;99.90;;;;;;5083089;28;20454;-68
2023/09/24 00:58:50;;;;;;;43.90;27.15;;;28.50;99.90;;;;;;5084678;28;20444;-66
2023/09/24 01:01:19;;;;;;;44.00;27.30;;;28.60;99.90;;;;;;5083620;28;20013;-67
2023/09/24 01:03:48;;;;;;;46.88;27.88;;;28.70;99.90;;;;;;5082191;28;20027;-66
2023/09/24 01:06:15;;;;;;;42.08;27.10;;;28.70;99.90;;;;;;5080722;28;20131;-67
2023/09/24 01:08:42;;;;;;;48.30;25.60;;;28.80;99.90;;;;;;5083174;28;20061;-68
2023/09/24 01:11:09;;;;;;;57.17;30.25;;;28.80;99.90;;;;;;5079476;28;20016;-67
2023/09/24 01:13:40;;;;;;;47.60;27.15;;;28.90;99.90;;;;;;5083277;28;20024;-66
2023/09/24 01:16:07;;;;;;;44.35;24.55;;;28.90;99.90;;;;;;5081791;28;20264;-67
2023/09/24 01:18:37;;;;;;;41.05;22.77;;;28.90;99.90;;;;;;5083615;28;20016;-67
2023/09/24 01:21:11;;;;;;;44.10;23.70;;;29.00;99.90;;;;;;5084040;28;20017;-64
2023/09/24 01:23:40;;;;;;;41.35;23.90;;;29.10;99.90;;;;;;5081655;28;20051;-69
2023/09/24 01:26:09;;;;;;;38.60;22.67;;;29.20;99.90;;;;;;5082062;28;20028;-65
2023/09/24 01:28:37;;;;;;;31.00;21.20;;;29.20;99.90;;;;;;5082980;28;20380;-67
2023/09/24 01:31:04;;;;;;;35.05;21.52;;;29.30;99.90;;;;;;5083964;28;20024;-66
2023/09/24 01:33:31;;;;;;;34.35;22.42;;;29.40;99.90;;;;;;5079444;28;20060;-67
2023/09/24 01:35:58;;;;;;;39.40;23.25;;;29.50;99.90;;;;;;5082663;28;20016;-66
2023/09/24 01:38:25;;;;;;;36.63;24.95;;;29.50;99.90;;;;;;5083954;28;20021;-67
2023/09/24 01:40:55;;;;;;;42.80;24.38;;;29.60;99.90;;;;;;5082067;28;20024;-66
2023/09/24 01:43:21;;;;;;;47.30;28.05;;;29.60;99.90;;;;;;5082349;28;20065;-67
2023/09/24 01:45:48;;;;;;;54.97;32.92;;;29.60;99.90;;;;;;5083922;28;20009;-66
2023/09/24 01:48:17;;;;;;;57.70;35.92;;;29.70;99.90;;;;;;5082626;28;20457;-68
2023/09/24 01:50:44;;;;;;;64.70;34.38;;;29.80;99.90;;;;;;5081681;28;20369;-68
2023/09/24 01:53:11;;;;;;;58.60;31.98;;;29.90;99.90;;;;;;5079417;28;20020;-68
2023/09/24 01:55:38;;;;;;;47.60;30.75;;;30.00;99.90;;;;;;5082627;28;20020;-65
2023/09/24 01:58:05;;;;;;;38.20;25.75;;;30.00;99.90;;;;;;5083569;28;20071;-67
2023/09/24 02:00:32;;;;;;;36.80;25.23;;;30.10;99.90;;;;;;5082090;28;20017;-67
2023/09/24 02:03:03;;;;;;;37.88;26.77;;;30.20;99.90;;;;;;5082458;28;20097;-68
2023/09/24 02:05:32;;;;;;;41.00;29.70;;;30.20;99.90;;;;;;5092831;28;20051;-66
2023/09/24 02:08:11;;;;;;;43.95;29.33;;;30.20;99.90;;;;;;5081153;28;20074;-66
2023/09/24 02:10:40;;;;;;;45.33;30.40;;;30.30;99.90;;;;;;5061705;28;20029;-68
2023/09/24 02:13:11;;;;;;;57.92;37.47;;;30.30;99.90;;;;;;5053748;28;20051;-66
2023/09/24 02:15:45;;;;;;;61.22;39.42;;;30.40;99.90;;;;;;5082657;28;20069;-67
2023/09/24 02:18:12;;;;;;;66.50;42.10;;;30.50;99.90;;;;;;5079576;28;20031;-67
2023/09/24 02:20:42;;;;;;;67.22;45.80;;;30.60;99.90;;;;;;5086018;28;20016;-68
2023/09/24 02:23:10;;;;;;;59.92;38.75;;;30.70;99.90;;;;;;5087185;28;20035;-65
2023/09/24 02:25:37;;;;;;;67.20;40.85;;;30.70;99.90;;;;;;5085975;28;20024;-68
2023/09/24 02:28:05;;;;;;;55.38;30.95;;;30.80;99.90;;;;;;5085629;28;20020;-68
2023/09/24 02:30:33;;;;;;;38.92;26.92;;;30.80;99.90;;;;;;5082846;28;20515;-67
2023/09/24 02:33:02;;;;;;;40.63;26.17;;;30.90;99.90;;;;;;5086231;28;20036;-66
2023/09/24 02:35:29;;;;;;;46.65;26.80;;;30.90;99.90;;;;;;5086999;28;20028;-68
2023/09/24 02:37:56;;;;;;;38.40;24.55;;;31.10;99.90;;;;;;5085559;28;20016;-68
2023/09/24 02:40:26;;;;;;;37.35;22.70;;;31.10;99.90;;;;;;5096152;28;20028;-69
2023/09/24 02:42:54;;;;;;;47.85;25.83;;;31.10;99.90;;;;;;5096361;28;20049;-70
2023/09/24 02:45:22;;;;;;;49.03;25.70;;;31.20;99.90;;;;;;5096224;28;20028;-64
2023/09/24 02:47:50;;;;;;;50.72;27.42;;;31.30;99.90;;;;;;5096613;28;20468;-67
2023/09/24 02:50:22;;;;;;;49.35;28.60;;;31.30;99.90;;;;;;5096588;28;20024;-67
2023/09/24 02:52:50;;;;;;;52.60;29.20;;;31.40;99.90;;;;;;5096050;28;20028;-66
2023/09/24 02:55:17;;;;;;;58.63;29.63;;;31.50;99.90;;;;;;5096069;28;20073;-66
2023/09/24 02:57:46;;;;;;;78.03;35.80;;;31.50;99.90;;;;;;5096165;28;20098;-70
2023/09/24 03:00:27;;;;;;;69.82;36.15;;;31.50;99.90;;;;;;5095912;28;20039;-70
2023/09/24 03:02:56;;;;;;;55.90;33.97;;;31.60;99.90;;;;;;5073215;28;20025;-70
2023/09/24 03:05:24;;;;;;;66.55;34.83;;;31.60;99.90;;;;;;5055426;28;20048;-71
2023/09/24 03:07:52;;;;;;;60.40;35.53;;;31.70;99.90;;;;;;5055667;28;20028;-67
2023/09/24 03:10:20;;;;;;;64.85;39.17;;;31.80;99.90;;;;;;5055556;28;20053;-67
2023/09/24 03:12:47;;;;;;;71.82;44.55;;;31.80;99.90;;;;;;5063899;28;20023;-68
2023/09/24 03:15:14;;;;;;;88.68;48.33;;;31.90;99.90;;;;;;5081994;28;20051;-67
2023/09/24 03:17:43;;;;;;;85.25;52.83;;;32.00;99.90;;;;;;5084922;28;20521;-70
2023/09/24 03:20:22;;;;;;;85.97;52.22;;;32.00;99.90;;;;;;5089529;28;20032;-65
2023/09/24 03:22:54;;;;;;;104.82;57.70;;;32.00;99.90;;;;;;5082424;28;20016;-66
2023/09/24 03:25:24;;;;;;;114.90;60.17;;;32.00;99.90;;;;;;5082019;28;20535;-68
2023/09/24 03:27:58;;;;;;;110.35;60.15;;;32.00;99.90;;;;;;5084481;28;20020;-67
2023/09/24 03:30:25;;;;;;;125.22;68.28;;;32.10;99.90;;;;;;5082536;28;20025;-69
2023/09/24 03:32:53;;;;;;;103.68;61.58;;;32.20;99.90;;;;;;5083543;28;20024;-67
2023/09/24 03:35:23;;;;;;;105.88;59.03;;;32.20;99.90;;;;;;5081462;28;20111;-66
2023/09/24 03:37:51;;;;;;;113.60;60.05;;;32.20;99.90;;;;;;5083706;28;20020;-66
2023/09/24 03:40:20;;;;;;;108.60;62.67;;;32.20;99.90;;;;;;5082327;28;20019;-66
2023/09/24 03:42:47;;;;;;;99.05;58.75;;;32.20;99.90;;;;;;5084996;28;20024;-66
2023/09/24 03:45:16;;;;;;;111.05;61.35;;;32.20;99.90;;;;;;5083462;28;20425;-66
2023/09/24 03:47:43;;;;;;;122.50;69.15;;;32.20;99.90;;;;;;5085094;28;20020;-66
2023/09/24 03:50:16;;;;;;;138.85;73.47;;;32.20;99.90;;;;;;5085162;28;20047;-67
2023/09/24 03:52:48;;;;;;;148.10;79.00;;;32.20;99.90;;;;;;5081968;28;20485;-67
2023/09/24 03:55:16;;;;;;;139.18;71.90;;;32.20;99.90;;;;;;5083372;28;20021;-67
2023/09/24 03:57:43;;;;;;;136.55;73.95;;;32.20;99.90;;;;;;5086045;28;20020;-66
2023/09/24 04:00:27;;;;;;;147.70;80.95;;;32.30;99.90;;;;;;5086103;28;20020;-67
2023/09/24 04:02:55;;;;;;;159.30;85.10;;;32.30;99.90;;;;;;5054320;28;20079;-66
2023/09/24 04:05:23;;;;;;;166.73;87.18;;;32.40;99.90;;;;;;5054338;28;20064;-67
2023/09/24 04:07:51;;;;;;;168.23;92.60;;;32.50;99.90;;;;;;5054460;28;20043;-67
2023/09/24 04:10:19;;;;;;;166.93;93.57;;;32.60;99.90;;;;;;5054272;28;20482;-67
2023/09/24 04:12:49;;;;;;;161.43;89.32;;;32.70;99.90;;;;;;5054149;28;20048;-66
2023/09/24 04:15:18;;;;;;;147.45;82.72;;;32.70;99.90;;;;;;5054235;28;20048;-66
2023/09/24 04:17:47;;;;;;;157.20;85.15;;;32.80;99.90;;;;;;5054183;28;20017;-66
2023/09/24 04:20:15;;;;;;;142.18;77.07;;;32.80;99.90;;;;;;5054090;28;20052;-66
2023/09/24 04:22:46;;;;;;;147.93;78.15;;;32.80;99.90;;;;;;5054210;28;20052;-64
2023/09/24 04:25:15;;;;;;;161.15;87.75;;;32.90;99.90;;;;;;5036139;28;20025;-67
2023/09/24 04:27:42;;;;;;;181.82;95.80;;;33.10;99.40;;;;;;5054004;28;20540;-67
2023/09/24 04:30:11;;;;;;;167.98;97.28;;;33.10;99.60;;;;;;5054130;28;20263;-66
2023/09/24 04:32:38;;;;;;;180.20;101.90;;;33.10;99.90;;;;;;5053850;28;20024;-65
2023/09/24 04:35:05;;;;;;;177.95;99.25;;;33.20;99.70;;;;;;5068406;28;20024;-66
2023/09/24 04:37:32;;;;;;;174.90;95.35;;;33.30;99.60;;;;;;5083453;28;20377;-66
2023/09/24 04:39:59;;;;;;;133.07;73.30;;;33.40;99.10;;;;;;5083000;28;20020;-66
2023/09/24 04:42:25;;;;;;;115.15;70.32;;;33.40;98.80;;;;;;5085200;28;20016;-66
2023/09/24 04:44:52;;;;;;;149.20;85.05;;;33.50;98.20;;;;;;5083140;28;20153;-65
2023/09/24 04:47:18;;;;;;;164.35;92.30;;;33.60;98.20;;;;;;5083689;28;20012;-67
2023/09/24 04:49:45;;;;;;;178.55;95.93;;;33.70;97.80;;;;;;5084978;28;20032;-68
2023/09/24 04:52:11;;;;;;;173.15;96.68;;;33.70;97.70;;;;;;5083028;28;20027;-67
2023/09/24 04:54:38;;;;;;;166.35;95.80;;;33.70;97.70;;;;;;5083622;28;20016;-67
2023/09/24 04:57:07;;;;;;;159.63;93.40;;;33.70;97.30;;;;;;5066105;28;20382;-66
2023/09/24 04:59:34;;;;;;;155.48;88.03;;;33.70;97.70;;;;;;5082812;28;20480;-67
2023/09/24 05:02:00;;;;;;;165.05;92.05;;;33.70;97.20;;;;;;5082647;28;20028;-67
2023/09/24 05:04:27;;;;;;;161.73;89.90;;;33.80;97.10;;;;;;5083850;28;20158;-66
2023/09/24 05:06:54;;;;;;;136.30;80.47;;;33.80;97.40;;;;;;5082945;28;20032;-66
2023/09/24 05:09:23;;;;;;;150.07;88.20;;;33.80;97.10;;;;;;5087894;28;20024;-66
2023/09/24 05:11:50;;;;;;;160.90;93.72;;;33.90;96.80;;;;;;5087390;28;20208;-66
2023/09/24 05:14:17;;;;;;;165.55;92.00;;;33.80;97.10;;;;;;5081902;28;20104;-67
2023/09/24 05:16:44;;;;;;;149.48;90.07;;;33.70;96.40;;;;;;5082989;28;20012;-65
2023/09/24 05:19:12;;;;;;;149.80;88.28;;;33.60;96.20;;;;;;5084011;28;20047;-65
2023/09/24 05:21:38;;;;;;;139.73;85.97;;;33.60;96.80;;;;;;5077654;28;20069;-65
2023/09/24 05:24:05;;;;;;;131.68;82.10;;;33.60;97.10;;;;;;5083358;28;20024;-65
2023/09/24 05:26:32;;;;;;;136.57;82.68;;;33.70;96.60;;;;;;5081714;28;20025;-65
2023/09/24 05:28:58;;;;;;;136.40;82.68;;;33.70;96.20;;;;;;5083573;28;20082;-69
2023/09/24 05:31:25;;;;;;;135.55;84.68;;;33.80;96.20;;;;;;5065550;28;20027;-67
2023/09/24 05:33:51;;;;;;;141.02;81.93;;;34.00;96.60;;;;;;5081749;28;20024;-67
2023/09/24 05:36:18;;;;;;;145.68;87.45;;;34.00;96.00;;;;;;5083845;28;20012;-68
2023/09/24 05:38:45;;;;;;;139.60;87.05;;;33.90;96.10;;;;;;5083913;28;20029;-70
2023/09/24 05:41:11;;;;;;;141.77;88.18;;;33.80;96.30;;;;;;5083333;28;20028;-67
2023/09/24 05:43:44;;;;;;;136.80;83.70;;;33.80;96.00;;;;;;5082845;28;20016;-68
2023/09/24 05:46:11;;;;;;;141.98;88.13;;;33.80;96.00;;;;;;5082063;28;20055;-66
2023/09/24 05:48:38;;;;;;;136.48;85.88;;;33.80;96.10;;;;;;5083701;28;20020;-68
2023/09/24 05:51:04;;;;;;;132.35;83.45;;;33.80;96.10;;;;;;5083711;28;20035;-68
2023/09/24 05:53:32;;;;;;;132.77;83.80;;;33.80;96.20;;;;;;5082593;28;20495;-68
2023/09/24 05:56:00;;;;;;;127.72;79.40;;;33.90;95.80;;;;;;5087572;28;20028;-69
2023/09/24 05:58:26;;;;;;;131.23;83.43;;;34.00;95.50;;;;;;5087359;28;20086;-69
2023/09/24 06:00:56;;;;;;;131.65;83.65;;;34.10;95.20;;;;;;5085761;28;20044;-68
2023/09/24 06:03:23;;;;;;;134.52;85.32;;;34.20;95.00;;;;;;5086970;28;20065;-68
2023/09/24 06:05:49;;;;;;;144.50;91.20;;;34.30;94.80;;;;;;5087732;28;20125;-70
2023/09/24 06:08:16;;;;;;;151.10;91.50;;;34.40;94.50;;;;;;5083586;28;20013;-71
2023/09/24 06:10:44;;;;;;;127.45;84.75;;;34.40;94.80;;;;;;5086798;28;20008;-69
2023/09/24 06:13:13;;;;;;;126.65;76.85;;;34.40;95.00;;;;;;5087503;28;20050;-69
2023/09/24 06:15:41;;;;;;;113.68;77.55;;;34.40;94.60;;;;;;5085871;28;20025;-68
2023/09/24 06:18:08;;;;;;;125.18;79.82;;;34.40;94.20;;;;;;5085590;28;20016;-69
2023/09/24 06:20:39;;;;;;;116.20;76.38;;;34.40;93.50;;;;;;5067466;28;20020;-64
2023/09/24 06:23:05;;;;;;;121.28;72.50;;;34.50;93.90;;;;;;5088153;28;20031;-65
2023/09/24 06:25:33;;;;;;;111.82;73.88;;;34.50;94.00;;;;;;5090114;28;20054;-65
2023/09/24 06:28:00;;;;;;;120.68;76.50;;;34.40;93.90;;;;;;5087256;28;20062;-66
2023/09/24 06:30:27;;;;;;;96.07;64.38;;;34.50;93.60;;;;;;5088525;28;20097;-65
2023/09/24 06:32:54;;;;;;;109.10;72.68;;;34.50;93.70;;;;;;5086097;28;20027;-69
2023/09/24 06:35:20;;;;;;;145.40;95.30;;;34.60;93.60;;;;;;5085567;28;20074;-68
2023/09/24 06:37:47;;;;;;;151.45;100.20;;;34.70;93.90;;;;;;5087210;28;20020;-70
2023/09/24 06:40:13;;;;;;;150.98;97.95;;;34.70;93.50;;;;;;5085016;28;20473;-69
2023/09/24 06:42:42;;;;;;;127.85;85.63;;;34.70;92.80;;;;;;5087362;28;20377;-68
2023/09/24 06:45:09;;;;;;;123.28;82.65;;;34.70;93.20;;;;;;5085778;28;20115;-69
2023/09/24 06:47:36;;;;;;;132.13;83.50;;;34.80;93.20;;;;;;5085355;28;20417;-67
2023/09/24 06:50:03;;;;;;;128.95;85.13;;;34.80;92.90;;;;;;5087599;28;20107;-66
2023/09/24 06:52:31;;;;;;;101.82;67.47;;;34.80;92.80;;;;;;5086525;28;20025;-67
2023/09/24 06:54:57;;;;;;;98.15;66.50;;;34.90;92.40;;;;;;5085199;28;20347;-68
2023/09/24 06:57:24;;;;;;;102.65;70.85;;;35.00;92.30;;;;;;5081503;28;20039;-66
2023/09/24 06:59:50;;;;;;;94.57;65.15;;;35.00;92.20;;;;;;5085443;28;20534;-66
2023/09/24 07:02:17;;;;;;;120.90;80.10;;;35.00;91.80;;;;;;5084997;28;20017;-64
2023/09/24 07:04:44;;;;;;;133.20;89.72;;;35.10;91.60;;;;;;5086650;28;20036;-65
2023/09/24 07:07:11;;;;;;;143.93;97.03;;;35.20;91.30;;;;;;5084860;28;20028;-68
2023/09/24 07:09:37;;;;;;;152.90;99.90;;;35.40;91.40;;;;;;5083445;28;20020;-68
2023/09/24 07:12:04;;;;;;;141.18;91.10;;;35.40;91.40;;;;;;5085386;28;20040;-66
2023/09/24 07:14:31;;;;;;;93.30;67.25;;;35.30;91.50;;;;;;5086719;28;20456;-67
2023/09/24 07:16:57;;;;;;;97.95;66.13;;;35.30;90.70;;;;;;5087491;28;20012;-66
2023/09/24 07:19:24;;;;;;;98.38;67.93;;;35.30;90.60;;;;;;5084850;28;20021;-67
2023/09/24 07:21:52;;;;;;;106.80;71.57;;;35.30;90.30;;;;;;5085610;28;20019;-68
2023/09/24 07:24:18;;;;;;;113.30;74.80;;;35.30;90.70;;;;;;5086202;28;20082;-67
2023/09/24 07:26:45;;;;;;;105.20;70.90;;;35.30;90.50;;;;;;5081909;28;20023;-67
2023/09/24 07:29:11;;;;;;;108.60;73.50;;;35.20;90.70;;;;;;5085423;28;20012;-68
2023/09/24 07:31:38;;;;;;;93.63;65.85;;;35.30;89.90;;;;;;5091623;28;20077;-67
2023/09/24 07:34:05;;;;;;;109.95;74.78;;;35.20;89.00;;;;;;5095300;28;20089;-67
2023/09/24 07:36:32;;;;;;;123.93;84.90;;;35.20;89.90;;;;;;5094700;28;20016;-68
2023/09/24 07:38:58;;;;;;;125.97;84.13;;;35.20;90.30;;;;;;5084237;28;20491;-68
2023/09/24 07:41:25;;;;;;;130.75;87.53;;;35.20;90.60;;;;;;5084457;28;20045;-67
2023/09/24 07:43:53;;;;;;;102.47;71.47;;;35.20;90.70;;;;;;5085260;28;20020;-69
2023/09/24 07:46:19;;;;;;;95.75;67.60;;;35.30;89.70;;;;;;5086235;28;20020;-70
2023/09/24 07:48:48;;;;;;;106.60;74.32;;;35.40;89.70;;;;;;5083571;28;20016;-68
2023/09/24 07:51:18;;;;;;;126.25;83.00;;;35.40;89.80;;;;;;5086091;28;20036;-68
2023/09/24 07:53:47;;;;;;;138.52;93.47;;;35.40;90.10;;;;;;5080480;28;20112;-69
2023/09/24 07:56:14;;;;;;;148.38;98.22;;;35.40;90.20;;;;;;5074888;28;20146;-71
2023/09/24 07:58:42;;;;;;;140.40;94.32;;;35.40;90.30;;;;;;5075082;28;20130;-69
2023/09/24 08:01:11;;;;;;;132.77;87.88;;;35.50;90.40;;;;;;5074912;28;20354;-69
2023/09/24 08:03:39;;;;;;;127.85;87.30;;;35.60;90.00;;;;;;5075037;28;20025;-68
2023/09/24 08:06:06;;;;;;;121.22;83.75;;;35.60;89.70;;;;;;5074999;28;20052;-68
2023/09/24 08:08:34;;;;;;;118.15;80.97;;;35.50;89.80;;;;;;5074967;28;20020;-70
2023/09/24 08:11:02;;;;;;;120.25;82.53;;;35.50;89.20;;;;;;5074918;28;20376;-68
2023/09/24 08:13:29;;;;;;;111.72;78.75;;;35.50;89.30;;;;;;5074669;28;20269;-69
2023/09/24 08:15:58;;;;;;;117.78;80.35;;;35.40;89.20;;;;;;5074543;28;20091;-68
2023/09/24 08:18:28;;;;;;;115.40;81.45;;;35.40;89.60;;;;;;5074132;28;20051;-68
2023/09/24 08:20:55;;;;;;;112.88;75.40;;;35.40;89.00;;;;;;5074605;28;20020;-68
2023/09/24 08:23:23;;;;;;;110.25;73.55;;;35.40;89.00;;;;;;5074353;28;20538;-69
2023/09/24 08:25:52;;;;;;;106.85;72.82;;;35.30;88.50;;;;;;5074560;28;20385;-68
2023/09/24 08:28:19;;;;;;;111.25;78.60;;;35.30;89.00;;;;;;5077718;28;20032;-67
2023/09/24 08:30:45;;;;;;;113.15;79.20;;;35.40;89.00;;;;;;5084860;28;20557;-69
2023/09/24 08:33:12;;;;;;;121.40;81.30;;;35.40;88.90;;;;;;5089121;28;20012;-66
2023/09/24 08:35:39;;;;;;;124.22;85.82;;;35.50;88.10;;;;;;5076733;28;20028;-65
2023/09/24 08:38:07;;;;;;;128.20;89.60;;;35.50;87.70;;;;;;5094680;28;20012;-67
2023/09/24 08:40:34;;;;;;;116.82;81.70;;;35.50;89.20;;;;;;5094595;28;20021;-66
2023/09/24 08:43:09;;;;;;;105.68;71.53;;;35.40;89.50;;;;;;5094350;28;20491;-67
2023/09/24 08:45:36;;;;;;;89.47;64.00;;;35.40;86.10;;;;;;5094260;28;20093;-67
2023/09/24 08:48:07;;;;;;;99.00;73.22;;;35.40;87.10;;;;;;5094322;28;20020;-67
2023/09/24 08:50:39;;;;;;;101.03;74.65;;;35.40;86.90;;;;;;5088712;28;20021;-67
2023/09/24 08:53:11;;;;;;;106.82;78.18;;;35.40;87.80;;;;;;5081555;28;20030;-65
2023/09/24 08:55:45;;;;;;;115.07;79.78;;;35.40;89.20;;;;;;5082781;28;20477;-66
2023/09/24 08:58:14;;;;;;;116.70;81.55;;;35.30;89.00;;;;;;5082917;28;20048;-66
2023/09/24 09:00:42;;;;;;;131.55;83.55;;;35.30;88.00;;;;;;5079783;28;20455;-67
2023/09/24 09:03:08;;;;;;;141.48;93.03;;;35.30;89.10;;;;;;5075265;28;20434;-66
2023/09/24 09:05:37;;;;;;;136.00;92.95;;;35.20;89.50;;;;;;5074709;28;20036;-67
2023/09/24 09:08:04;;;;;;;147.93;98.28;;;35.20;89.70;;;;;;5094166;28;20035;-68
2023/09/24 09:10:32;;;;;;;161.73;99.82;;;35.20;88.60;;;;;;5093928;28;20035;-67
2023/09/24 09:13:19;;;;;;;132.05;94.13;;;35.20;88.60;;;;;;5093840;28;20422;-67
2023/09/24 09:15:46;;;;;;;150.55;96.60;;;35.10;88.50;;;;;;5075839;28;20430;-67
2023/09/24 09:18:26;;;;;;;153.32;100.05;;;35.10;88.70;;;;;;5093748;28;20407;-68
2023/09/24 09:21:02;;;;;;;151.20;99.05;;;35.10;88.60;;;;;;5093588;28;20016;-67
2023/09/24 09:23:44;;;;;;;169.73;107.95;;;35.00;88.60;;;;;;5084859;28;20013;-66
2023/09/24 09:26:11;;;;;;;386.23;280.77;;;35.00;88.70;;;;;;5079784;28;20388;-66
2023/09/24 09:28:38;;;;;;;436.77;316.52;;;35.00;87.90;;;;;;5082949;28;20073;-66
2023/09/24 09:31:09;;;;;;;204.50;140.98;;;35.00;88.50;;;;;;5083198;28;20027;-66
2023/09/24 09:33:41;;;;;;;187.63;116.30;;;35.00;88.20;;;;;;5079233;28;20021;-66
2023/09/24 09:36:29;;;;;;;217.85;130.18;;;35.00;88.30;;;;;;5082454;28;20245;-67
2023/09/24 09:38:59;;;;;;;206.50;123.13;;;35.00;88.20;;;;;;5076083;28;20025;-67
2023/09/24 09:41:26;;;;;;;178.98;112.40;;;34.90;88.50;;;;;;5072046;28;20070;-68
2023/09/24 09:43:53;;;;;;;204.25;123.22;;;34.90;88.50;;;;;;5073628;28;20031;-67
2023/09/24 09:46:23;;;;;;;214.23;129.63;;;34.90;88.20;;;;;;5082327;28;20039;-68
2023/09/24 09:48:55;;;;;;;212.77;137.50;;;34.90;88.20;;;;;;5065737;28;20039;-69
2023/09/24 09:51:22;;;;;;;180.57;113.63;;;34.90;88.00;;;;;;5089109;28;20060;-67
2023/09/24 09:53:53;;;;;;;192.02;116.60;;;34.80;88.40;;;;;;5085510;28;20024;-68
2023/09/24 09:56:22;;;;;;;163.77;104.57;;;34.80;89.20;;;;;;5091779;28;20020;-67
2023/09/24 09:58:51;;;;;;;168.43;103.57;;;34.80;90.20;;;;;;5094592;28;20529;-68
2023/09/24 10:01:20;;;;;;;159.18;100.05;;;34.60;91.30;;;;;;5082767;28;20029;-68
2023/09/24 10:03:51;;;;;;;152.93;95.05;;;34.50;92.00;;;;;;5077258;28;20032;-67
2023/09/24 10:06:19;;;;;;;158.77;95.60;;;34.40;92.60;;;;;;5074568;28;20040;-69
2023/09/24 10:08:47;;;;;;;143.05;88.57;;;34.50;93.00;;;;;;5057648;28;20031;-69
2023/09/24 10:11:34;;;;;;;146.82;89.35;;;34.40;92.50;;;;;;5075656;28;20023;-68
2023/09/24 10:14:04;;;;;;;152.90;94.78;;;34.30;92.90;;;;;;5060551;28;20051;-68
2023/09/24 10:16:35;;;;;;;153.30;91.32;;;34.20;93.50;;;;;;5082560;28;20400;-71
2023/09/24 10:19:04;;;;;;;142.20;85.97;;;34.20;93.40;;;;;;5081788;28;20036;-69
2023/09/24 10:21:35;;;;;;;135.55;84.80;;;34.20;93.30;;;;;;5081594;28;20032;-69
2023/09/24 10:24:12;;;;;;;151.48;93.78;;;34.10;93.60;;;;;;5080833;28;20024;-69
2023/09/24 10:27:03;;;;;;;159.73;94.60;;;34.10;94.10;;;;;;5086367;28;20032;-69
2023/09/24 10:29:53;;;;;;;159.88;89.82;;;34.00;94.10;;;;;;5086597;28;20021;-70
2023/09/24 10:32:22;;;;;;;149.98;93.55;;;33.90;94.20;;;;;;5085601;28;20016;-70
2023/09/24 10:35:09;;;;;;;144.88;89.40;;;34.00;94.50;;;;;;5084518;28;20362;-67
2023/09/24 10:37:38;;;;;;;144.52;87.85;;;33.90;94.40;;;;;;5072337;28;20032;-70
2023/09/24 10:40:17;;;;;;;138.73;84.85;;;33.80;94.60;;;;;;5073960;28;20078;-67
2023/09/24 10:42:45;;;;;;;134.20;80.85;;;33.80;94.80;;;;;;5076289;28;20024;-69
2023/09/24 10:45:12;;;;;;;129.93;83.53;;;33.80;95.10;;;;;;5057964;28;20469;-68
2023/09/24 10:47:40;;;;;;;126.35;81.20;;;33.80;95.50;;;;;;5076071;28;20107;-65
2023/09/24 10:50:09;;;;;;;117.32;75.90;;;33.70;95.70;;;;;;5076091;28;20044;-66
2023/09/24 10:53:05;;;;;;;109.22;69.45;;;33.80;95.50;;;;;;5075818;28;20047;-66
2023/09/24 10:55:36;;;;;;;89.47;55.90;;;33.70;95.80;;;;;;5075957;28;20021;-67
2023/09/24 10:58:05;;;;;;;84.83;54.47;;;33.60;95.80;;;;;;5075858;28;20509;-67
2023/09/24 11:00:34;;;;;;;97.43;61.53;;;33.60;95.50;;;;;;5081505;28;20025;-66
2023/09/24 11:03:04;;;;;;;115.72;67.40;;;33.40;95.30;;;;;;5083771;28;20025;-66
2023/09/24 11:05:49;;;;;;;105.53;65.95;;;33.40;95.80;;;;;;5076513;28;20389;-67
2023/09/24 11:08:18;;;;;;;104.47;65.72;;;33.40;95.50;;;;;;5076012;28;20039;-66
2023/09/24 11:10:48;;;;;;;96.97;61.17;;;33.30;95.30;;;;;;5076006;28;20048;-67
2023/09/24 11:13:15;;;;;;;88.32;56.60;;;33.30;95.60;;;;;;5076066;28;20024;-66
2023/09/24 11:15:42;;;;;;;72.93;46.92;;;33.20;95.40;;;;;;5075931;28;20029;-66
2023/09/24 11:18:12;;;;;;;57.70;40.40;;;33.10;95.60;;;;;;5083883;28;20366;-67
2023/09/24 11:20:48;;;;;;;58.75;39.65;;;33.10;95.70;;;;;;5078742;28;20020;-67
2023/09/24 11:23:14;;;;;;;66.70;41.67;;;33.00;95.60;;;;;;5080294;28;20035;-68
2023/09/24 11:25:49;;;;;;;64.00;42.03;;;33.00;95.50;;;;;;5062851;28;20382;-66
2023/09/24 11:28:16;;;;;;;62.22;39.70;;;32.90;95.70;;;;;;5082767;28;20082;-70
2023/09/24 11:30:43;;;;;;;59.85;38.15;;;32.90;95.70;;;;;;5082892;28;20028;-72
2023/09/24 11:33:17;;;;;;;71.75;42.83;;;32.80;95.90;;;;;;5081202;28;20031;-68
2023/09/24 11:35:45;;;;;;;80.22;47.30;;;32.80;95.80;;;;;;5082927;28;20129;-66
2023/09/24 11:38:12;;;;;;;75.40;45.95;;;32.80;95.70;;;;;;5081606;28;20068;-67
2023/09/24 11:40:40;;;;;;;70.80;42.90;;;32.70;95.60;;;;;;5085795;28;20473;-67
2023/09/24 11:43:11;;;;;;;70.55;42.60;;;32.70;96.00;;;;;;5086029;28;20021;-72
2023/09/24 11:45:42;;;;;;;82.07;49.88;;;32.70;96.40;;;;;;5084395;28;20054;-67
2023/09/24 11:48:14;;;;;;;82.30;48.58;;;32.70;96.10;;;;;;5083532;28;20028;-68
2023/09/24 11:50:44;;;;;;;86.72;52.13;;;32.70;96.20;;;;;;5086000;28;20035;-68
2023/09/24 11:53:11;;;;;;;92.57;55.40;;;32.60;96.60;;;;;;5076512;28;20118;-68
2023/09/24 11:55:38;;;;;;;96.00;56.30;;;32.60;96.50;;;;;;5058022;28;20027;-69
2023/09/24 11:58:06;;;;;;;112.75;63.42;;;32.60;96.70;;;;;;5076827;28;20025;-69
2023/09/24 12:00:35;;;;;;;110.72;65.28;;;32.50;96.50;;;;;;5073932;28;20025;-67
2023/09/24 12:03:03;;;;;;;121.88;71.90;;;32.40;96.60;;;;;;5076624;28;20060;-68
2023/09/24 12:05:32;;;;;;;127.03;74.85;;;32.30;96.90;;;;;;5075732;28;20049;-70
2023/09/24 12:08:00;;;;;;;121.38;70.63;;;32.20;96.70;;;;;;5079904;28;20020;-69
2023/09/24 12:10:26;;;;;;;122.88;69.53;;;32.20;97.20;;;;;;5068330;28;20024;-69
2023/09/24 12:12:53;;;;;;;120.05;67.03;;;32.20;96.70;;;;;;5079381;28;20020;-69
2023/09/24 12:15:20;;;;;;;110.05;64.20;;;32.10;97.00;;;;;;5079028;28;20024;-63
2023/09/24 12:17:47;;;;;;;134.23;71.03;;;32.10;97.10;;;;;;5094180;28;20039;-66
2023/09/24 12:20:14;;;;;;;109.32;66.28;;;32.10;97.30;;;;;;5087145;28;20020;-65
2023/09/24 12:22:43;;;;;;;104.85;62.05;;;32.10;97.20;;;;;;5085251;28;20051;-66
2023/09/24 12:25:11;;;;;;;105.03;62.55;;;32.00;97.30;;;;;;5083491;28;20047;-66
2023/09/24 12:27:39;;;;;;;98.25;62.75;;;32.00;97.30;;;;;;5083256;28;20016;-64
2023/09/24 12:30:10;;;;;;;97.75;63.45;;;32.00;97.80;;;;;;5080102;28;20028;-66